Time;durP1;ratioP1;P1;durP2;ratioP2;P2;SDS_P1;SDS_P2;PMS_P1;PMS_P2;Temp;Humidity;BMP_temperature;BMP_pressure;BME280_temperature;BME280_humidity;BME280_pressure;Samples;Min_cycle;Max_cycle;Signal;HPM_P1;HPM_P2
2022/06/05 00:01:19;;;;;;;7.77;7.47;;;18.60;99.90;18.40;101541.00;;;;5114921;28;20188;-65
2022/06/05 00:04:30;;;;;;;7.40;7.20;;;18.50;99.90;18.60;101510.00;;;;5114908;28;20185;-65
2022/06/05 00:07:08;;;;;;;7.30;7.10;;;18.50;99.90;18.40;101507.00;;;;5116274;28;20222;-65
2022/06/05 00:10:18;;;;;;;6.40;6.20;;;18.30;99.90;17.70;101487.00;;;;5114758;28;20206;-63
2022/06/05 00:13:21;;;;;;;5.90;5.70;;;18.10;99.90;17.70;101454.00;;;;5114738;28;20306;-62
2022/06/05 00:15:47;;;;;;;5.93;5.73;;;17.90;99.90;17.80;101469.00;;;;5119013;27;20202;-63
2022/06/05 00:18:14;;;;;;;6.13;5.93;;;17.90;99.90;17.90;101493.00;;;;5115900;28;20164;-63
2022/06/05 00:20:47;;;;;;;6.67;6.47;;;17.90;99.90;17.90;101489.00;;;;5116240;28;20181;-63
2022/06/05 00:23:15;;;;;;;6.50;6.30;;;17.90;99.90;18.10;101489.00;;;;5114843;28;20203;-63
2022/06/05 00:26:02;;;;;;;6.67;6.47;;;18.00;99.90;18.00;101464.00;;;;5114998;28;20176;-64
2022/06/05 00:28:38;;;;;;;7.10;6.90;;;18.00;99.90;17.90;101473.00;;;;5114348;28;20169;-64
2022/06/05 00:31:19;;;;;;;7.07;6.77;;;18.00;99.90;18.20;101441.00;;;;5114361;28;20190;-64
2022/06/05 00:33:47;;;;;;;7.37;7.07;;;18.00;99.90;18.40;101463.00;;;;5115738;28;20179;-63
2022/06/05 00:36:38;;;;;;;6.80;6.60;;;18.10;99.90;18.10;101460.00;;;;5114334;28;20275;-64
2022/06/05 00:39:14;;;;;;;6.20;5.93;;;18.10;99.90;17.70;101459.00;;;;5114101;28;20203;-64
2022/06/05 00:42:04;;;;;;;5.70;5.50;;;17.90;99.90;17.80;101417.00;;;;5115312;28;20184;-64
2022/06/05 00:44:38;;;;;;;5.20;5.10;;;17.80;99.90;17.70;101448.00;;;;5114132;28;20643;-64
2022/06/05 00:47:06;;;;;;;6.17;5.97;;;17.80;99.90;17.70;101429.00;;;;5114008;28;20507;-65
2022/06/05 00:49:38;;;;;;;4.70;4.60;;;17.90;99.90;17.70;101405.00;;;;5114199;28;20665;-64
2022/06/05 00:52:11;;;;;;;6.07;5.87;;;17.80;99.90;17.60;101416.00;;;;5113753;28;20206;-64
2022/06/05 00:54:37;;;;;;;6.30;6.10;;;17.80;99.90;17.70;101430.00;;;;5114182;28;20177;-64
2022/06/05 00:57:09;;;;;;;6.07;5.87;;;17.80;99.90;17.60;101437.00;;;;5113822;28;20607;-64
2022/06/05 00:59:40;;;;;;;5.50;5.33;;;17.80;99.90;17.50;101433.00;;;;5115044;28;20157;-64
2022/06/05 01:02:09;;;;;;;5.80;5.43;;;17.70;99.90;17.60;101436.00;;;;5113983;28;20236;-64
2022/06/05 01:04:41;;;;;;;6.30;6.10;;;17.70;99.90;17.50;101424.00;;;;5113733;28;20534;-64
2022/06/05 01:07:07;;;;;;;5.20;5.10;;;17.70;99.90;17.60;101432.00;;;;5130864;27;20258;-64
2022/06/05 01:09:34;;;;;;;5.83;5.63;;;17.70;99.90;17.50;101432.00;;;;5113702;28;20172;-64
2022/06/05 01:12:34;;;;;;;6.60;5.70;;;17.70;99.90;17.60;101410.00;;;;5114841;28;20211;-64
2022/06/05 01:15:27;;;;;;;5.87;5.67;;;17.70;99.90;17.90;101415.00;;;;5114653;28;20181;-64
2022/06/05 01:18:00;;;;;;;6.23;6.03;;;17.80;99.90;17.70;101399.00;;;;5091043;28;20238;-64
2022/06/05 01:21:08;;;;;;;5.37;5.27;;;17.80;99.90;17.60;101380.00;;;;5114658;28;20523;-64
2022/06/05 01:23:58;;;;;;;5.60;5.40;;;17.70;99.90;17.80;101389.00;;;;5114666;28;20231;-63
2022/06/05 01:26:40;;;;;;;6.53;6.33;;;17.80;99.90;17.70;101390.00;;;;5114826;28;20165;-64
2022/06/05 01:29:19;;;;;;;5.93;5.73;;;17.80;99.90;17.70;101388.00;;;;5096381;28;20197;-64
2022/06/05 01:31:59;;;;;;;5.80;5.60;;;17.80;99.90;17.90;101393.00;;;;5113137;28;20211;-64
2022/06/05 01:35:07;;;;;;;6.30;6.00;;;17.80;99.90;17.50;101345.00;;;;5112953;28;20243;-64
2022/06/05 01:38:00;;;;;;;5.27;5.17;;;17.80;99.90;17.70;101338.00;;;;5108570;27;20651;-64
2022/06/05 01:40:40;;;;;;;6.47;6.27;;;17.70;99.90;17.70;101372.00;;;;5112892;28;20188;-64
2022/06/05 01:43:19;;;;;;;6.67;6.43;;;17.70;99.90;18.00;101367.00;;;;5113198;28;20256;-64
2022/06/05 01:45:59;;;;;;;7.70;7.30;;;17.90;99.90;18.10;101351.00;;;;5114521;28;20171;-64
2022/06/05 01:48:39;;;;;;;5.80;5.60;;;18.00;99.90;17.60;101347.00;;;;5112977;28;20174;-64
2022/06/05 01:51:15;;;;;;;5.63;5.43;;;17.90;99.90;17.80;101338.00;;;;5130079;27;20506;-64
2022/06/05 01:53:48;;;;;;;6.73;6.43;;;17.90;99.90;17.50;101342.00;;;;5112623;28;20703;-64
2022/06/05 01:56:39;;;;;;;7.23;6.87;;;17.80;99.90;17.60;101335.00;;;;5113091;28;20619;-64
2022/06/05 01:59:35;;;;;;;6.13;5.93;;;17.70;99.90;17.70;101320.00;;;;5147107;27;20249;-64
2022/06/05 02:02:04;;;;;;;5.87;5.60;;;17.70;99.90;17.40;101311.00;;;;5113806;28;20186;-65
2022/06/05 02:04:37;;;;;;;5.30;5.10;;;17.60;99.90;17.40;101286.00;;;;5112392;28;20183;-63
2022/06/05 02:07:16;;;;;;;4.83;4.73;;;17.60;99.90;17.30;101305.00;;;;5113026;28;20157;-64
2022/06/05 02:09:55;;;;;;;4.80;4.70;;;17.60;99.90;17.30;101273.00;;;;5112711;27;20239;-64
2022/06/05 02:12:25;;;;;;;5.60;5.40;;;17.50;99.90;17.30;101290.00;;;;5112382;28;20674;-63
2022/06/05 02:14:51;;;;;;;6.20;5.90;;;17.50;99.90;17.20;101290.00;;;;5112863;28;20171;-64
2022/06/05 02:17:18;;;;;;;6.37;5.87;;;17.40;99.90;17.00;101287.00;;;;5112818;28;20180;-63
2022/06/05 02:19:44;;;;;;;3.93;3.83;;;17.30;99.90;17.00;101284.00;;;;5112225;28;20179;-64
2022/06/05 02:22:19;;;;;;;4.60;4.40;;;17.30;99.90;16.90;101272.00;;;;5112574;28;20232;-64
2022/06/05 02:24:45;;;;;;;5.00;4.80;;;17.30;99.90;17.00;101278.00;;;;5113708;28;20633;-64
2022/06/05 02:27:11;;;;;;;5.17;4.67;;;17.20;99.90;17.00;101277.00;;;;5113779;28;20173;-64
2022/06/05 02:29:38;;;;;;;3.53;3.43;;;17.20;99.90;17.10;101254.00;;;;5113729;28;20208;-64
2022/06/05 02:32:16;;;;;;;4.30;4.10;;;17.20;99.90;17.40;101260.00;;;;5111802;28;20275;-64
2022/06/05 02:34:58;;;;;;;6.37;6.07;;;17.30;99.90;17.40;101251.00;;;;5113359;28;20257;-64
2022/06/05 02:37:45;;;;;;;4.73;4.43;;;17.40;99.90;17.10;101247.00;;;;5113576;28;20183;-64
2022/06/05 02:40:32;;;;;;;4.67;4.40;;;17.30;99.90;17.00;101244.00;;;;5113598;28;20189;-64
2022/06/05 02:43:41;;;;;;;4.93;4.63;;;17.20;99.90;17.20;101247.00;;;;5112233;28;20675;-64
2022/06/05 02:46:23;;;;;;;4.20;4.00;;;17.30;99.90;17.10;101244.00;;;;5113598;28;20249;-64
2022/06/05 02:49:13;;;;;;;8.57;6.77;;;17.30;99.90;16.90;101197.00;;;;5112235;28;20633;-64
2022/06/05 02:51:46;;;;;;;4.17;3.83;;;17.30;99.90;17.10;101234.00;;;;5112247;28;20189;-64
2022/06/05 02:54:29;;;;;;;4.13;3.93;;;17.30;99.90;17.30;101237.00;;;;5112364;28;20195;-64
2022/06/05 02:57:00;;;;;;;3.67;3.57;;;17.30;99.90;17.10;101239.00;;;;5112533;28;20265;-64
2022/06/05 02:59:26;;;;;;;4.37;4.07;;;17.30;99.90;17.30;101240.00;;;;5112436;28;20163;-65
2022/06/05 03:04:39;;;;;;;2.37;2.37;;;17.30;99.90;17.10;101238.00;;;;5112802;28;20291;-64
2022/06/05 03:07:08;;;;;;;3.43;3.27;;;17.20;99.90;16.80;101236.00;;;;5113617;28;20657;-64
2022/06/05 03:09:36;;;;;;;3.90;3.60;;;17.10;99.90;16.80;101193.00;;;;5112308;28;20185;-64
2022/06/05 03:12:05;;;;;;;2.10;2.10;;;17.10;99.90;17.10;101241.00;;;;5113391;28;20199;-64
2022/06/05 03:14:31;;;;;;;2.93;2.83;;;17.20;99.90;17.20;101223.00;;;;5113152;28;20167;-64
2022/06/05 03:16:57;;;;;;;3.10;3.00;;;17.20;99.90;16.90;101221.00;;;;5113218;28;20180;-64
2022/06/05 03:19:25;;;;;;;4.33;4.07;;;17.10;99.90;17.10;101222.00;;;;5116006;28;20186;-64
2022/06/05 03:21:54;;;;;;;4.03;3.80;;;17.20;99.90;17.00;101217.00;;;;5117172;28;20201;-64
2022/06/05 03:24:22;;;;;;;2.00;2.00;;;17.20;99.90;17.10;101223.00;;;;5117395;28;20159;-65
2022/06/05 03:26:48;;;;;;;3.20;3.10;;;17.10;99.90;17.50;101222.00;;;;5116017;28;20177;-64
2022/06/05 03:29:14;;;;;;;2.83;2.73;;;17.30;99.90;17.30;101221.00;;;;5116900;28;20634;-64
2022/06/05 03:31:40;;;;;;;4.77;4.57;;;17.40;99.90;17.60;101218.00;;;;5116436;28;20211;-64
2022/06/05 03:34:05;;;;;;;3.67;3.57;;;17.40;99.90;17.60;101224.00;;;;5098702;28;20273;-65
2022/06/05 03:36:32;;;;;;;5.13;4.83;;;17.40;99.90;17.70;101215.00;;;;5111930;28;20176;-64
2022/06/05 03:38:58;;;;;;;4.40;4.20;;;17.50;99.90;17.60;101207.00;;;;5112184;28;20183;-65
2022/06/05 03:41:24;;;;;;;4.37;4.17;;;17.50;99.90;17.20;101207.00;;;;5115464;28;20194;-64
2022/06/05 03:43:50;;;;;;;2.90;2.80;;;17.40;99.90;17.40;101212.00;;;;5132909;27;20543;-64
2022/06/05 03:46:17;;;;;;;5.80;5.50;;;17.40;99.90;17.60;101209.00;;;;5114950;28;20698;-64
2022/06/05 03:48:45;;;;;;;3.23;3.13;;;17.50;99.90;17.30;101198.00;;;;5116654;28;20253;-64
2022/06/05 03:51:19;;;;;;;2.90;2.80;;;17.40;99.90;17.30;101208.00;;;;5116365;28;20185;-63
2022/06/05 03:53:46;;;;;;;4.63;4.27;;;17.30;99.90;17.20;101203.00;;;;5115392;28;20265;-64
2022/06/05 03:56:23;;;;;;;3.07;2.97;;;17.40;99.90;17.10;101195.00;;;;5116232;27;20169;-64
2022/06/05 03:58:50;;;;;;;2.00;2.00;;;17.20;99.90;16.90;101201.00;;;;5132584;27;20273;-64
2022/06/05 04:01:21;;;;;;;6.23;5.73;;;17.10;99.90;16.70;101203.00;;;;5114781;28;20180;-64
2022/06/05 04:03:48;;;;;;;2.97;2.87;;;17.00;99.90;16.90;101198.00;;;;5115070;28;20186;-64
2022/06/05 04:06:20;;;;;;;3.07;2.87;;;17.00;99.90;16.80;101194.00;;;;5114923;28;20183;-64
2022/06/05 04:08:45;;;;;;;4.53;4.07;;;17.00;99.90;16.70;101191.00;;;;5115351;28;20583;-63
2022/06/05 04:11:19;;;;;;;2.00;1.90;;;17.00;99.90;17.00;101164.00;;;;5114545;28;20372;-63
2022/06/05 04:13:45;;;;;;;3.13;2.93;;;17.00;99.90;16.50;101197.00;;;;5131848;27;20179;-64
2022/06/05 04:16:20;;;;;;;1.83;1.83;;;16.90;99.90;17.00;101191.00;;;;5114869;28;20178;-64
2022/06/05 04:18:48;;;;;;;4.27;3.97;;;17.00;99.90;17.00;101193.00;;;;5131618;27;20223;-64
2022/06/05 04:21:26;;;;;;;2.37;2.27;;;17.10;99.90;16.90;101174.00;;;;5131897;27;20215;-63
2022/06/05 04:23:54;;;;;;;2.67;2.47;;;17.10;99.90;16.90;101192.00;;;;5114391;28;20177;-64
2022/06/05 04:26:27;;;;;;;1.90;1.90;;;17.00;99.90;17.50;101196.00;;;;5114333;28;20190;-63
2022/06/05 04:28:54;;;;;;;2.47;2.37;;;17.20;99.90;16.80;101185.00;;;;5114470;28;20160;-64
2022/06/05 04:31:36;;;;;;;2.13;2.03;;;17.10;99.90;17.00;101199.00;;;;5113904;28;20318;-64
2022/06/05 04:34:09;;;;;;;2.90;2.73;;;17.00;99.90;16.70;101188.00;;;;5114584;28;20183;-63
2022/06/05 04:36:35;;;;;;;2.00;1.90;;;17.00;99.90;16.90;101177.00;;;;5114426;28;20183;-63
2022/06/05 04:39:01;;;;;;;1.37;1.37;;;17.00;99.90;16.80;101183.00;;;;5114652;28;20200;-63
2022/06/05 04:41:27;;;;;;;2.87;2.77;;;17.00;99.90;17.00;101177.00;;;;5114156;28;20625;-64
2022/06/05 04:43:55;;;;;;;3.03;2.87;;;17.10;99.90;16.50;101173.00;;;;5115403;28;20207;-63
2022/06/05 04:46:24;;;;;;;1.77;1.67;;;16.90;99.90;16.60;101177.00;;;;5115293;28;20176;-63
2022/06/05 04:48:50;;;;;;;1.80;1.53;;;16.90;99.90;16.90;101164.00;;;;5113728;28;20206;-64
2022/06/05 04:51:20;;;;;;;2.10;1.47;;;17.10;99.90;17.00;101181.00;;;;5115639;28;20704;-65
2022/06/05 04:53:49;;;;;;;3.47;3.17;;;17.10;99.90;16.70;101170.00;;;;5114150;28;20621;-64
2022/06/05 04:56:21;;;;;;;2.53;2.37;;;17.00;99.90;16.50;101174.00;;;;5113974;28;20170;-64
2022/06/05 04:58:51;;;;;;;3.60;2.43;;;16.90;99.90;16.70;101154.00;;;;5113866;28;20164;-65
2022/06/05 05:01:25;;;;;;;2.70;2.50;;;17.00;99.90;16.50;101164.00;;;;5115065;28;20240;-65
2022/06/05 05:03:59;;;;;;;1.47;1.37;;;16.90;99.90;16.70;101158.00;;;;5114991;28;20167;-65
2022/06/05 05:06:26;;;;;;;3.40;3.13;;;17.00;99.90;16.70;101133.00;;;;5130671;27;20179;-64
2022/06/05 05:08:53;;;;;;;2.13;2.03;;;17.00;99.90;16.70;101167.00;;;;5113911;28;20190;-65
2022/06/05 05:11:20;;;;;;;3.87;3.57;;;17.00;99.90;16.70;101159.00;;;;5113424;28;20238;-65
2022/06/05 05:13:47;;;;;;;2.07;1.97;;;17.00;99.90;16.80;101164.00;;;;5114623;28;20599;-65
2022/06/05 05:16:13;;;;;;;3.40;3.10;;;17.10;99.90;16.70;101155.00;;;;5115012;28;20255;-64
2022/06/05 05:18:39;;;;;;;0.83;0.83;;;17.00;99.90;17.10;101160.00;;;;5096703;28;20614;-65
2022/06/05 05:21:21;;;;;;;0.97;0.97;;;17.10;99.90;17.10;101136.00;;;;5113704;28;20169;-65
2022/06/05 05:23:48;;;;;;;2.97;2.37;;;17.20;99.90;16.90;101116.00;;;;5113511;28;20183;-64
2022/06/05 05:26:22;;;;;;;1.80;1.70;;;17.20;99.90;17.10;101157.00;;;;5113618;28;20171;-65
2022/06/05 05:28:48;;;;;;;1.97;1.87;;;17.20;99.90;16.90;101153.00;;;;5113323;28;20171;-65
2022/06/05 05:31:25;;;;;;;3.07;2.67;;;17.20;99.90;16.90;101147.00;;;;5112886;28;20200;-64
2022/06/05 05:33:52;;;;;;;0.70;0.70;;;17.20;99.90;17.10;101104.00;;;;5114489;28;20173;-64
2022/06/05 05:36:20;;;;;;;5.50;4.80;;;17.20;99.90;16.70;101148.00;;;;5113145;28;20175;-65
2022/06/05 05:44:17;;;;;;;2.97;2.70;;;17.20;99.90;17.00;101141.00;;;;5112920;28;20205;-64
2022/06/05 05:46:44;;;;;;;1.70;1.60;;;17.20;99.90;17.00;101146.00;;;;5113453;28;20171;-64
2022/06/05 05:49:12;;;;;;;0.70;0.70;;;17.20;99.90;17.30;101140.00;;;;5114063;28;20176;-65
2022/06/05 05:51:38;;;;;;;1.33;1.33;;;17.40;99.90;17.40;101129.00;;;;5113227;28;20213;-64
2022/06/05 05:54:05;;;;;;;0.70;0.70;;;17.50;99.90;17.60;101136.00;;;;5114251;28;20188;-65
2022/06/05 05:56:34;;;;;;;1.37;1.37;;;17.60;99.90;17.30;101149.00;;;;5114005;28;20171;-66
2022/06/05 05:59:00;;;;;;;0.67;0.67;;;17.50;99.90;17.60;101160.00;;;;5113518;28;20183;-65
2022/06/05 06:01:27;;;;;;;1.60;1.60;;;17.60;99.90;17.60;101152.00;;;;5112890;28;20185;-65
2022/06/05 06:03:56;;;;;;;2.23;2.13;;;17.70;99.90;17.70;101165.00;;;;5113202;28;20168;-64
2022/06/05 06:06:27;;;;;;;0.83;0.83;;;17.70;99.90;17.30;101161.00;;;;5112591;28;20164;-64
2022/06/05 06:08:54;;;;;;;0.60;0.60;;;17.60;99.90;17.80;101166.00;;;;5114036;28;20173;-64
2022/06/05 06:11:23;;;;;;;1.77;1.67;;;17.70;99.90;17.20;101169.00;;;;5112334;28;20201;-64
2022/06/05 06:13:49;;;;;;;1.97;1.87;;;17.60;99.90;17.50;101166.00;;;;5112706;28;20185;-65
2022/06/05 06:16:15;;;;;;;0.80;0.80;;;17.70;99.90;18.00;101153.00;;;;5112476;28;20176;-65
2022/06/05 06:18:41;;;;;;;2.00;1.33;;;17.80;99.90;17.90;101160.00;;;;5112808;28;20275;-64
2022/06/05 06:21:07;;;;;;;1.30;1.20;;;17.90;99.90;17.50;101170.00;;;;5112720;28;20173;-64
2022/06/05 06:23:33;;;;;;;0.57;0.57;;;17.80;99.90;17.50;101178.00;;;;5112603;28;20174;-65
2022/06/05 06:25:59;;;;;;;0.60;0.60;;;17.70;99.90;18.00;101194.00;;;;5113488;28;20172;-64
2022/06/05 06:28:25;;;;;;;1.23;1.20;;;17.90;99.90;18.60;101197.00;;;;5113501;28;20221;-64
2022/06/05 06:30:51;;;;;;;2.47;2.27;;;18.20;99.90;18.10;101177.00;;;;5113275;28;20178;-65
2022/06/05 06:33:16;;;;;;;2.10;2.00;;;18.10;99.90;18.00;101224.00;;;;5112291;28;20218;-64
2022/06/05 06:35:42;;;;;;;3.20;1.90;;;18.20;99.90;18.40;101213.00;;;;5113632;28;20176;-65
2022/06/05 06:38:08;;;;;;;0.70;0.70;;;18.30;99.90;19.20;101194.00;;;;5113875;28;20169;-65
2022/06/05 06:40:35;;;;;;;0.80;0.80;;;18.80;99.90;19.60;101162.00;;;;5112009;28;20173;-65
2022/06/05 06:43:02;;;;;;;1.70;1.63;;;19.10;99.90;20.00;101205.00;;;;5112477;28;20228;-65
2022/06/05 06:45:28;;;;;;;2.20;2.00;;;19.50;99.90;18.70;101167.00;;;;5112453;28;20179;-64
2022/06/05 06:47:54;;;;;;;1.13;1.13;;;19.10;99.90;19.70;101198.00;;;;5113863;28;20236;-64
2022/06/05 06:50:20;;;;;;;0.70;0.70;;;19.30;99.90;19.80;101174.00;;;;5113227;28;20607;-64
2022/06/05 06:52:46;;;;;;;1.77;1.25;;;19.70;99.90;20.30;101184.00;;;;5113511;28;20206;-64
2022/06/05 06:55:16;;;;;;;0.68;0.68;;;20.00;99.90;21.20;101193.00;;;;5117696;28;20164;-64
2022/06/05 06:57:46;;;;;;;0.63;0.63;;;20.50;99.90;21.20;101197.00;;;;5133627;27;20181;-64
2022/06/05 07:00:18;;;;;;;0.60;0.60;;;20.90;99.90;20.50;101159.00;;;;5116386;28;20176;-64
2022/06/05 07:02:44;;;;;;;0.40;0.40;;;20.90;99.90;21.00;101160.00;;;;5116107;28;20177;-64
2022/06/05 07:05:11;;;;;;;0.30;0.30;;;21.00;99.90;21.20;101171.00;;;;5116329;28;20257;-64
2022/06/05 07:07:37;;;;;;;0.40;0.40;;;21.10;99.90;22.10;101157.00;;;;5116468;28;20200;-64
2022/06/05 07:10:05;;;;;;;0.82;0.82;;;21.50;99.90;23.00;101156.00;;;;5115836;28;20176;-64
2022/06/05 07:12:34;;;;;;;0.40;0.40;;;22.20;99.90;23.80;101147.00;;;;5115861;28;20211;-64
2022/06/05 07:15:03;;;;;;;0.30;0.30;;;22.90;99.90;25.30;101173.00;;;;5116237;28;20171;-64
2022/06/05 07:17:32;;;;;;;0.70;0.70;;;24.30;99.90;26.30;101205.00;;;;5117183;28;20176;-64
2022/06/05 07:19:58;;;;;;;0.35;0.35;;;25.30;99.90;27.20;101207.00;;;;5117033;28;20512;-65
2022/06/05 07:22:24;;;;;;;0.22;0.22;;;26.10;99.90;26.10;101213.00;;;;5115707;28;20168;-64
2022/06/05 07:24:53;;;;;;;0.60;0.60;;;25.90;99.90;27.50;101240.00;;;;5132874;27;20677;-65
2022/06/05 07:27:20;;;;;;;0.20;0.20;;;26.40;99.90;27.70;101245.00;;;;5116043;28;20241;-64
2022/06/05 07:29:45;;;;;;;0.40;0.40;;;26.80;99.90;28.00;101252.00;;;;5117448;28;20165;-64
2022/06/05 07:32:13;;;;;;;0.20;0.20;;;27.00;99.90;27.90;101265.00;;;;5098266;28;20221;-65
2022/06/05 07:34:40;;;;;;;0.43;0.43;;;27.10;99.90;27.50;101238.00;;;;5116836;28;20161;-64
2022/06/05 07:37:06;;;;;;;0.85;0.85;;;26.90;99.90;27.10;101249.00;;;;5115728;28;20228;-64
2022/06/05 07:39:31;;;;;;;2.58;2.38;;;26.40;99.90;26.50;101253.00;;;;5115152;28;20177;-64
2022/06/05 07:42:00;;;;;;;1.55;1.35;;;26.10;99.90;26.20;101243.00;;;;5116645;28;20206;-64
2022/06/05 07:44:29;;;;;;;0.30;0.30;;;25.60;99.90;25.90;101237.00;;;;5115600;28;20195;-64
2022/06/05 07:46:55;;;;;;;0.88;0.88;;;25.30;99.90;25.90;101223.00;;;;5115580;28;20369;-64
2022/06/05 07:49:23;;;;;;;0.22;0.22;;;25.20;99.90;25.50;101229.00;;;;5132472;27;20222;-64
2022/06/05 07:54:37;;;;;;;0.75;0.75;;;24.50;99.90;24.90;101220.00;;;;5115037;28;20183;-65
2022/06/05 07:57:04;;;;;;;0.30;0.30;;;24.30;99.90;24.70;101199.00;;;;5115190;28;20248;-65
2022/06/05 07:59:38;;;;;;;1.50;1.50;;;24.20;99.90;25.10;101213.00;;;;5114993;28;20168;-65
2022/06/05 08:02:11;;;;;;;0.75;0.75;;;24.40;99.90;24.80;101198.00;;;;5116186;28;20181;-64
2022/06/05 08:04:38;;;;;;;2.50;1.35;;;24.30;99.90;25.30;101197.00;;;;5114335;27;20512;-66
2022/06/05 08:07:08;;;;;;;0.20;0.20;;;24.50;99.90;25.60;101211.00;;;;5114801;28;20180;-65
2022/06/05 08:09:35;;;;;;;0.20;0.20;;;24.70;99.90;25.80;101216.00;;;;5132349;27;20237;-65
2022/06/05 08:12:01;;;;;;;0.20;0.20;;;24.90;99.90;25.30;101187.00;;;;5115013;28;20690;-65
2022/06/05 08:14:32;;;;;;;0.30;0.30;;;24.90;99.90;24.60;101177.00;;;;5114897;28;20592;-65
2022/06/05 08:17:04;;;;;;;2.42;0.82;;;24.60;99.90;24.00;101133.00;;;;5115149;28;20177;-65
2022/06/05 08:19:30;;;;;;;1.05;1.05;;;24.10;99.90;23.90;101150.00;;;;5115192;28;20230;-64
2022/06/05 08:21:56;;;;;;;1.80;1.50;;;23.70;99.90;21.20;101102.00;;;;5114619;28;20199;-64
2022/06/05 08:24:22;;;;;;;0.90;0.82;;;22.60;99.90;20.60;101064.00;;;;5115232;28;20223;-64
2022/06/05 08:26:52;;;;;;;0.90;0.90;;;21.50;99.90;20.20;101061.00;;;;5114980;28;20221;-64
2022/06/05 08:29:20;;;;;;;0.20;0.20;;;21.00;99.90;21.00;101073.00;;;;5114860;28;20172;-64
2022/06/05 08:31:46;;;;;;;1.52;1.30;;;21.10;99.90;20.40;101076.00;;;;5115462;28;20216;-64
2022/06/05 08:34:24;;;;;;;0.80;0.80;;;21.00;99.90;20.70;101080.00;;;;5114709;28;20188;-64
2022/06/05 08:41:27;;;;;;;1.73;1.13;;;20.80;99.90;20.20;101049.00;;;;5115773;28;20259;-64
2022/06/05 08:42:57;;;;;;;0.88;0.88;;;20.80;99.90;21.00;101074.00;;;;5114618;28;20191;-69
2022/06/05 08:46:00;;;;;;;1.27;0.85;;;21.00;99.90;20.10;101054.00;;;;5131690;27;20212;-69
2022/06/05 08:48:34;;;;;;;0.93;0.90;;;20.70;99.90;20.40;101056.00;;;;5114224;28;20203;-69
2022/06/05 08:51:38;;;;;;;1.42;1.20;;;20.70;99.90;20.10;101062.00;;;;5115588;28;20176;-72
2022/06/05 08:54:34;;;;;;;0.50;0.50;;;20.70;99.90;20.30;101054.00;;;;5131407;27;20180;-80
2022/06/05 08:57:14;;;;;;;2.88;2.08;;;20.70;99.90;20.20;101071.00;;;;5097294;28;20585;-76
2022/06/05 08:59:49;;;;;;;1.73;1.65;;;20.60;99.90;21.10;101087.00;;;;5097203;28;20175;-76
2022/06/05 09:02:35;;;;;;;0.40;0.40;;;20.90;99.90;21.60;101059.00;;;;5113596;28;20192;-76
2022/06/05 09:05:17;;;;;;;1.20;1.13;;;21.30;99.90;20.40;101061.00;;;;5115075;28;20185;-75
2022/06/05 09:07:48;;;;;;;2.75;2.42;;;21.00;99.90;20.20;101076.00;;;;5113647;28;20168;-75
2022/06/05 09:10:42;;;;;;;0.30;0.30;;;20.70;99.90;20.20;101084.00;;;;5127221;27;20245;-75
2022/06/05 09:13:18;;;;;;;3.40;2.70;;;20.70;99.90;19.90;101047.00;;;;5094511;28;20217;-76
2022/06/05 09:15:55;;;;;;;1.02;0.98;;;20.40;99.90;20.00;101084.00;;;;5092507;28;20189;-77
2022/06/05 09:18:24;;;;;;;2.17;1.98;;;20.40;99.90;20.60;101083.00;;;;5094786;28;20652;-77
2022/06/05 09:21:22;;;;;;;1.15;1.05;;;20.50;99.90;20.40;101038.00;;;;5076148;28;20181;-76
2022/06/05 09:24:16;;;;;;;0.50;0.50;;;20.50;99.90;20.80;101083.00;;;;5093913;28;20220;-76
2022/06/05 09:27:02;;;;;;;0.60;0.60;;;20.50;99.90;21.00;101074.00;;;;5092198;28;20193;-76
2022/06/05 09:30:00;;;;;;;1.20;1.10;;;20.80;99.90;20.40;101074.00;;;;5093344;28;20173;-77
2022/06/05 09:33:00;;;;;;;2.05;1.63;;;20.60;99.90;20.60;101072.00;;;;5113002;28;20332;-77
2022/06/05 09:35:48;;;;;;;0.30;0.30;;;20.70;99.90;20.90;101046.00;;;;5109011;28;20180;-77
2022/06/05 09:38:40;;;;;;;1.60;1.58;;;20.70;99.90;21.40;101072.00;;;;5093094;28;20195;-77
2022/06/05 09:41:59;;;;;;;3.35;3.15;;;21.00;99.90;20.50;101065.00;;;;5093353;28;20547;-77
2022/06/05 09:45:09;;;;;;;0.50;0.50;;;20.70;99.90;20.40;101042.00;;;;5108244;28;20224;-77
2022/06/05 09:47:44;;;;;;;1.17;1.17;;;20.50;99.90;20.70;101089.00;;;;5114324;28;20653;-77
2022/06/05 09:50:26;;;;;;;0.70;0.70;;;20.50;99.90;20.80;101035.00;;;;5113216;28;20152;-78
2022/06/05 09:52:56;;;;;;;1.00;1.00;;;20.60;99.90;20.80;101073.00;;;;5112886;28;20188;-77
2022/06/05 09:56:23;;;;;;;4.70;3.70;;;20.60;99.90;20.40;101078.00;;;;5113224;28;20631;-77
2022/06/05 09:59:24;;;;;;;0.30;0.30;;;20.50;99.90;20.60;101075.00;;;;5097321;28;20646;-77
2022/06/05 10:01:56;;;;;;;0.93;0.93;;;20.40;99.90;20.10;101074.00;;;;5112873;28;20218;-78
2022/06/05 10:04:34;;;;;;;0.60;0.60;;;20.40;99.90;20.60;101080.00;;;;5111856;28;20184;-78
2022/06/05 10:07:16;;;;;;;0.90;0.90;;;20.40;99.90;20.40;101079.00;;;;5117940;27;20278;-79
2022/06/05 10:09:45;;;;;;;1.20;1.20;;;20.40;99.90;20.60;101091.00;;;;5092340;28;20271;-80
2022/06/05 10:12:24;;;;;;;0.47;0.47;;;20.40;99.90;20.30;101103.00;;;;5092368;28;20659;-79
2022/06/05 10:15:00;;;;;;;0.85;0.82;;;20.20;99.90;20.20;101095.00;;;;5120021;27;20240;-79
2022/06/05 10:17:50;;;;;;;3.13;2.10;;;20.20;99.90;20.10;101111.00;;;;5101809;28;20673;-79
2022/06/05 10:33:39;;;;;;;2.03;1.83;;;18.80;99.90;18.40;101087.00;;;;5079622;28;20603;-78
2022/06/05 10:36:26;;;;;;;0.70;0.70;;;18.70;99.90;19.30;101130.00;;;;5058643;28;20183;-78
2022/06/05 10:39:26;;;;;;;0.40;0.40;;;18.90;99.90;19.70;101099.00;;;;5041678;28;20204;-71
2022/06/05 10:41:52;;;;;;;1.37;1.27;;;19.30;99.90;20.00;101123.00;;;;5059313;28;20202;-78
2022/06/05 10:44:26;;;;;;;1.57;1.47;;;19.50;99.90;19.50;101085.00;;;;5058834;28;20550;-71
2022/06/05 10:47:11;;;;;;;1.60;1.40;;;19.50;99.90;19.50;101101.00;;;;5057153;28;20188;-72
2022/06/05 10:50:15;;;;;;;1.23;1.23;;;19.30;99.90;19.10;101122.00;;;;5055877;28;20182;-78
2022/06/05 10:52:57;;;;;;;0.50;0.50;;;19.20;99.90;19.10;101134.00;;;;5055975;28;20224;-79
2022/06/05 10:55:52;;;;;;;0.70;0.67;;;19.00;99.90;19.30;101151.00;;;;5053870;28;20219;-78
2022/06/05 10:58:31;;;;;;;0.50;0.50;;;18.90;99.90;19.60;101148.00;;;;5060671;28;20180;-78
2022/06/05 11:01:23;;;;;;;0.60;0.60;;;19.10;99.90;19.40;101139.00;;;;5061726;28;20223;-79
2022/06/05 11:04:00;;;;;;;0.50;0.50;;;19.20;99.90;19.90;101125.00;;;;5036731;28;20277;-79
2022/06/05 11:07:09;;;;;;;0.60;0.60;;;19.40;99.90;19.80;101160.00;;;;5039306;28;20192;-88
2022/06/05 11:14:00;;;;;;;0.50;0.50;;;19.20;99.90;19.70;101153.00;;;;5037449;28;20244;-76
2022/06/05 11:16:38;;;;;;;0.60;0.60;;;19.30;99.90;19.80;101143.00;;;;5046205;28;20535;-75
2022/06/05 11:19:22;;;;;;;0.60;0.60;;;19.40;99.90;19.50;101146.00;;;;5056656;28;20199;-76
2022/06/05 11:21:52;;;;;;;1.53;1.53;;;19.20;99.90;19.50;101144.00;;;;5057485;28;20190;-78
2022/06/05 11:24:29;;;;;;;1.77;1.67;;;19.20;99.90;19.70;101145.00;;;;5056975;28;20678;-78
2022/06/05 11:27:30;;;;;;;0.50;0.50;;;19.20;99.90;19.40;101134.00;;;;5056838;28;20186;-78
2022/06/05 11:30:05;;;;;;;0.50;0.50;;;19.10;99.90;19.30;101147.00;;;;5028540;28;20184;-80
2022/06/05 11:33:11;;;;;;;2.07;1.97;;;19.00;99.90;19.20;101144.00;;;;5028073;28;20222;-80
2022/06/05 11:36:09;;;;;;;2.07;1.97;;;19.00;99.90;18.60;101144.00;;;;5024726;28;20191;-78
2022/06/05 11:39:18;;;;;;;1.17;1.07;;;18.60;99.90;18.30;101157.00;;;;5040248;28;20191;-79
2022/06/05 11:42:12;;;;;;;2.23;2.13;;;18.30;99.90;17.80;101160.00;;;;5029554;28;20233;-78
2022/06/05 11:44:49;;;;;;;1.83;1.73;;;18.10;99.90;17.50;101160.00;;;;5014144;28;20707;-79
2022/06/05 11:47:39;;;;;;;3.03;2.07;;;17.70;99.90;17.20;101160.00;;;;5016285;28;20183;-77
2022/06/05 11:50:29;;;;;;;10.07;5.57;;;17.60;99.90;17.60;101162.00;;;;5033683;28;20198;-78
2022/06/05 11:53:36;;;;;;;2.83;2.63;;;17.60;99.90;17.60;101164.00;;;;5014979;28;20215;-79
2022/06/05 11:56:33;;;;;;;5.53;4.67;;;17.60;99.90;17.30;101168.00;;;;5000904;28;20272;-79